Time;durP1;ratioP1;P1;durP2;ratioP2;P2;SDS_P1;SDS_P2;PMS_P1;PMS_P2;Temp;Humidity;BMP_temperature;BMP_pressure;BME280_temperature;BME280_humidity;BME280_pressure;Samples;Min_cycle;Max_cycle;Signal;HPM_P1;HPM_P2
2023/11/21 00:00:11;;;;;;;;;;;8.00;99.90;;;;;;21164542;27;19919;-87
2023/11/21 00:10:14;;;;;;;;;;;8.00;99.90;;;;;;21173439;27;19922;-86
2023/11/21 00:20:14;;;;;;;;;;;8.00;99.90;;;;;;21194503;27;19912;-87
2023/11/21 00:30:15;;;;;;;;;;;8.00;99.90;;;;;;21166408;27;20057;-86
2023/11/21 00:40:19;;;;;;;;;;;8.00;99.90;;;;;;21175323;27;20054;-87
2023/11/21 00:50:19;;;;;;;;;;;8.00;99.90;;;;;;21134749;28;19924;-87
2023/11/21 01:00:20;;;;;;;;;;;7.70;99.90;;;;;;21152856;28;20012;-85
2023/11/21 01:10:21;;;;;;;;;;;7.70;99.90;;;;;;21135155;28;19923;-86
2023/11/21 01:20:21;;;;;;;;;;;7.70;99.90;;;;;;21125188;27;19969;-86
2023/11/21 01:30:22;;;;;;;;;;;7.70;99.90;;;;;;21151489;27;19915;-86
2023/11/21 01:40:24;;;;;;;;;;;7.80;99.90;;;;;;21135557;27;19923;-86
2023/11/21 01:50:25;;;;;;;;;;;7.70;99.90;;;;;;21122044;27;19915;-86
2023/11/21 02:00:27;;;;;;;;;;;7.60;99.90;;;;;;21153099;27;19918;-86
2023/11/21 02:10:30;;;;;;;;;;;7.50;99.90;;;;;;21156017;27;19922;-86
2023/11/21 02:20:34;;;;;;;;;;;7.50;99.90;;;;;;21120655;28;19911;-86
2023/11/21 02:30:36;;;;;;;;;;;7.50;99.90;;;;;;21151666;27;19989;-86
2023/11/21 02:40:37;;;;;;;;;;;7.50;99.90;;;;;;21130441;27;19966;-86
2023/11/21 02:50:38;;;;;;;;;;;7.50;99.90;;;;;;21149799;27;19916;-85
2023/11/21 03:00:42;;;;;;;;;;;7.50;99.90;;;;;;21162969;28;20046;-85
2023/11/21 03:10:42;;;;;;;;;;;7.50;99.90;;;;;;21154490;28;20394;-86
2023/11/21 03:20:46;;;;;;;;;;;7.60;99.90;;;;;;21163108;28;20344;-86
2023/11/21 03:30:46;;;;;;;;;;;7.50;99.90;;;;;;21138174;28;19922;-86
2023/11/21 03:40:47;;;;;;;;;;;7.40;99.90;;;;;;21108276;28;19935;-86
2023/11/21 03:50:48;;;;;;;;;;;7.30;99.90;;;;;;21128057;28;20299;-86
2023/11/21 04:00:49;;;;;;;;;;;7.30;99.90;;;;;;21209048;27;19912;-85
2023/11/21 04:10:50;;;;;;;;;;;7.20;99.90;;;;;;21166868;27;19923;-85
2023/11/21 04:20:50;;;;;;;;;;;7.10;99.90;;;;;;21143095;27;19912;-86
2023/11/21 04:30:51;;;;;;;;;;;7.10;99.90;;;;;;21150009;27;20341;-86
2023/11/21 04:40:52;;;;;;;;;;;7.00;99.90;;;;;;21133304;28;19920;-87
2023/11/21 04:50:52;;;;;;;;;;;7.00;99.90;;;;;;21172114;28;19916;-87
2023/11/21 05:00:53;;;;;;;;;;;7.10;99.90;;;;;;21162035;27;19912;-87
2023/11/21 05:10:54;;;;;;;;;;;7.00;99.90;;;;;;21168744;27;20338;-86
2023/11/21 05:20:54;;;;;;;;;;;7.00;99.90;;;;;;21166617;27;19912;-86
2023/11/21 05:30:55;;;;;;;;;;;6.90;99.90;;;;;;21126151;27;19951;-88
2023/11/21 05:40:58;;;;;;;;;;;7.00;99.90;;;;;;21108196;27;20417;-87
2023/11/21 05:50:59;;;;;;;;;;;7.10;99.90;;;;;;21156983;27;19937;-89
2023/11/21 06:00:59;;;;;;;;;;;7.10;99.90;;;;;;21142577;27;19911;-89
2023/11/21 06:11:00;;;;;;;;;;;7.20;99.90;;;;;;21116712;27;19999;-88
2023/11/21 06:21:01;;;;;;;;;;;7.20;99.90;;;;;;21142908;27;19912;-87
2023/11/21 06:31:04;;;;;;;;;;;7.20;99.90;;;;;;21124518;27;20318;-88
2023/11/21 06:41:05;;;;;;;;;;;7.20;99.90;;;;;;21129689;28;19916;-87
2023/11/21 06:51:06;;;;;;;;;;;7.20;99.90;;;;;;21118052;28;20389;-87
2023/11/21 07:01:07;;;;;;;;;;;7.20;99.90;;;;;;21141038;28;20267;-88
2023/11/21 07:11:11;;;;;;;;;;;7.30;99.90;;;;;;21131898;28;19922;-87
2023/11/21 07:21:12;;;;;;;;;;;7.30;99.90;;;;;;21126250;28;19919;-88
2023/11/21 07:31:13;;;;;;;;;;;7.40;99.90;;;;;;21122913;28;19971;-87
2023/11/21 07:41:17;;;;;;;;;;;7.40;99.90;;;;;;21143789;28;19955;-89
2023/11/21 07:51:18;;;;;;;;;;;7.40;99.90;;;;;;21120560;27;19919;-87
2023/11/21 08:01:18;;;;;;;;;;;7.50;99.90;;;;;;21164287;27;19918;-86
2023/11/21 08:11:19;;;;;;;;;;;7.50;99.90;;;;;;21143312;28;19916;-86
2023/11/21 08:21:20;;;;;;;;;;;7.50;99.90;;;;;;21135100;28;19946;-85
2023/11/21 08:31:25;;;;;;;;;;;7.60;99.90;;;;;;21151748;27;19916;-87
2023/11/21 08:41:27;;;;;;;;;;;7.70;99.90;;;;;;21155941;27;19942;-87
2023/11/21 08:51:28;;;;;;;;;;;7.80;99.90;;;;;;21153781;27;19915;-87
2023/11/21 09:01:31;;;;;;;;;;;8.10;99.90;;;;;;21148336;27;19918;-86
2023/11/21 09:11:33;;;;;;;;;;;8.40;99.90;;;;;;21131319;28;19916;-86
2023/11/21 09:21:34;;;;;;;;;;;8.50;99.90;;;;;;21129709;27;19999;-87
2023/11/21 09:31:35;;;;;;;;;;;8.60;99.90;;;;;;21126367;27;19970;-86
2023/11/21 09:41:43;;;;;;;;;;;8.50;99.90;;;;;;21115282;27;19916;-86
2023/11/21 09:51:45;;;;;;;;;;;8.80;99.90;;;;;;21141823;27;19916;-86
2023/11/21 10:01:46;;;;;;;;;;;8.60;99.90;;;;;;21122455;27;19912;-86
2023/11/21 10:11:47;;;;;;;;;;;8.70;99.90;;;;;;21142324;28;19919;-87
2023/11/21 10:21:47;;;;;;;;;;;8.90;99.90;;;;;;21143580;27;19923;-86
2023/11/21 10:31:52;;;;;;;;;;;8.80;99.90;;;;;;21141916;27;19916;-86
2023/11/21 10:41:54;;;;;;;;;;;8.90;99.90;;;;;;21132439;27;19973;-86
2023/11/21 10:51:55;;;;;;;;;;;8.90;99.90;;;;;;21142555;28;19912;-87
2023/11/21 11:01:57;;;;;;;;;;;8.80;99.90;;;;;;21158889;27;19912;-86
2023/11/21 11:11:59;;;;;;;;;;;8.80;99.90;;;;;;21129221;28;20390;-86
2023/11/21 11:22:07;;;;;;;;;;;8.90;99.90;;;;;;21134465;28;19912;-86
2023/11/21 11:32:27;;;;;;;;;;;8.80;99.90;;;;;;21131682;28;19911;-87
2023/11/21 11:42:30;;;;;;;;;;;8.60;99.90;;;;;;21125800;28;19916;-85
2023/11/21 11:52:35;;;;;;;;;;;8.60;99.90;;;;;;21145626;28;19922;-86
2023/11/21 12:02:37;;;;;;;;;;;8.60;99.90;;;;;;21124712;28;19922;-86
2023/11/21 12:12:41;;;;;;;;;;;8.60;99.90;;;;;;21128254;28;19916;-86
2023/11/21 12:22:48;;;;;;;;;;;8.60;99.90;;;;;;21152061;27;19923;-86
2023/11/21 12:32:51;;;;;;;;;;;8.70;99.90;;;;;;21129025;27;19962;-86
2023/11/21 12:42:53;;;;;;;;;;;8.80;99.90;;;;;;21140307;27;19920;-86
2023/11/21 12:52:54;;;;;;;;;;;8.80;99.90;;;;;;21127398;27;19912;-86
2023/11/21 13:02:56;;;;;;;;;;;9.00;99.90;;;;;;21182437;27;19915;-86
2023/11/21 13:12:58;;;;;;;;;;;9.10;99.90;;;;;;21168803;27;20437;-86
2023/11/21 13:22:59;;;;;;;;;;;9.20;99.90;;;;;;21147561;27;19916;-85
2023/11/21 13:33:02;;;;;;;;;;;9.40;99.90;;;;;;21134234;27;20008;-85
2023/11/21 13:43:05;;;;;;;;;;;9.20;99.90;;;;;;21139264;27;19923;-84
2023/11/21 13:53:22;;;;;;;;;;;8.80;99.90;;;;;;21137222;27;19915;-86
2023/11/21 14:03:24;;;;;;;;;;;8.80;99.90;;;;;;21137807;28;19922;-85
2023/11/21 14:13:25;;;;;;;;;;;8.60;99.90;;;;;;21159022;27;19912;-87
2023/11/21 14:23:29;;;;;;;;;;;8.60;99.90;;;;;;21130044;28;21666;-86
2023/11/21 14:33:30;;;;;;;;;;;8.60;99.90;;;;;;21172115;27;20304;-86
2023/11/21 14:43:35;;;;;;;;;;;8.50;99.90;;;;;;21128057;27;20286;-85
2023/11/21 14:53:54;;;;;;;;;;;8.50;99.90;;;;;;21138995;27;19911;-86
2023/11/21 15:03:55;;;;;;;;;;;8.50;99.90;;;;;;21129888;27;19916;-87
2023/11/21 15:13:56;;;;;;;;;;;8.30;99.90;;;;;;21138889;28;20367;-85
2023/11/21 15:23:57;;;;;;;;;;;8.20;99.90;;;;;;21132496;28;20302;-87
2023/11/21 15:33:59;;;;;;;;;;;8.10;99.90;;;;;;21148610;28;20467;-87
2023/11/21 15:44:00;;;;;;;;;;;8.20;99.90;;;;;;21127744;28;20376;-87
2023/11/21 15:54:01;;;;;;;;;;;8.20;99.90;;;;;;21144378;28;20381;-87
2023/11/21 16:04:03;;;;;;;;;;;8.10;99.90;;;;;;21191983;27;19961;-86
2023/11/21 16:14:03;;;;;;;;;;;8.10;99.90;;;;;;21185747;27;19923;-87
2023/11/21 16:24:04;;;;;;;;;;;8.10;99.90;;;;;;21146354;27;19916;-87
2023/11/21 16:34:11;;;;;;;;;;;8.00;99.90;;;;;;21182348;27;19912;-88
2023/11/21 16:44:16;;;;;;;;;;;8.00;99.90;;;;;;21155877;27;19916;-88
2023/11/21 16:54:19;;;;;;;;;;;7.70;99.90;;;;;;21169795;27;19943;-86
2023/11/21 17:04:19;;;;;;;;;;;7.50;99.90;;;;;;21214988;27;20499;-87
2023/11/21 17:14:20;;;;;;;;;;;7.50;99.90;;;;;;21179606;27;20244;-86
2023/11/21 17:24:21;;;;;;;;;;;7.40;99.90;;;;;;21194977;27;19920;-86
2023/11/21 17:34:21;;;;;;;;;;;7.30;99.90;;;;;;21145117;27;19912;-86
2023/11/21 17:44:22;;;;;;;;;;;7.40;99.90;;;;;;21132609;28;20002;-84
2023/11/21 17:54:23;;;;;;;;;;;7.40;99.90;;;;;;21117980;27;19916;-86
2023/11/21 18:04:23;;;;;;;;;;;7.40;99.90;;;;;;21146846;28;19915;-84
2023/11/21 18:14:24;;;;;;;;;;;7.30;99.90;;;;;;21146947;27;20552;-86
2023/11/21 18:24:25;;;;;;;;;;;7.20;99.90;;;;;;21133165;28;19935;-86
2023/11/21 18:34:25;;;;;;;;;;;7.20;99.90;;;;;;21132485;27;19964;-88
2023/11/21 18:44:26;;;;;;;;;;;7.30;99.90;;;;;;21127179;27;20027;-88
2023/11/21 18:54:27;;;;;;;;;;;7.30;99.90;;;;;;21167066;27;19915;-86
2023/11/21 19:04:28;;;;;;;;;;;7.30;99.90;;;;;;21139850;27;19920;-86
2023/11/21 19:14:29;;;;;;;;;;;7.30;99.90;;;;;;21138721;28;19986;-87
2023/11/21 19:24:30;;;;;;;;;;;7.20;99.90;;;;;;21145107;28;20429;-87
2023/11/21 19:34:31;;;;;;;;;;;7.20;99.90;;;;;;21138204;28;20295;-87
2023/11/21 19:44:32;;;;;;;;;;;7.30;99.90;;;;;;21175546;27;19916;-86
2023/11/21 19:54:33;;;;;;;;;;;7.40;99.90;;;;;;21163496;27;20264;-87
2023/11/21 20:04:34;;;;;;;;;;;7.50;99.90;;;;;;21151327;27;20406;-85
2023/11/21 20:14:35;;;;;;;;;;;7.40;99.90;;;;;;21157129;28;20294;-86
2023/11/21 20:24:35;;;;;;;;;;;7.30;99.90;;;;;;21134449;28;20000;-86
2023/11/21 20:34:36;;;;;;;;;;;7.20;99.90;;;;;;21152125;27;19966;-85
2023/11/21 20:44:37;;;;;;;;;;;7.20;99.90;;;;;;21146342;27;19973;-85
2023/11/21 20:54:38;;;;;;;;;;;7.20;99.90;;;;;;21162321;27;19935;-86
2023/11/21 21:04:39;;;;;;;;;;;7.20;99.90;;;;;;21170613;27;19919;-85
2023/11/21 21:14:39;;;;;;;;;;;7.20;99.90;;;;;;21133926;27;19923;-86
2023/11/21 21:24:40;;;;;;;;;;;7.10;99.90;;;;;;21148800;27;19916;-87
2023/11/21 21:34:41;;;;;;;;;;;7.10;99.90;;;;;;21129028;28;19927;-87
2023/11/21 21:44:42;;;;;;;;;;;7.00;99.90;;;;;;21098841;28;19916;-88
2023/11/21 21:54:43;;;;;;;;;;;7.00;99.90;;;;;;21124721;27;19955;-88
2023/11/21 22:04:43;;;;;;;;;;;6.90;99.90;;;;;;21107795;28;19916;-89
2023/11/21 22:14:44;;;;;;;;;;;6.80;99.90;;;;;;21122082;28;19975;-89
2023/11/21 22:24:45;;;;;;;;;;;7.00;99.90;;;;;;21113494;27;20351;-88
2023/11/21 22:34:46;;;;;;;;;;;6.90;99.90;;;;;;21145939;27;20386;-88
2023/11/21 22:44:47;;;;;;;;;;;6.90;99.90;;;;;;21133696;27;19967;-89
2023/11/21 22:54:47;;;;;;;;;;;6.80;99.90;;;;;;21122798;27;20375;-89
2023/11/21 23:04:48;;;;;;;;;;;6.70;99.90;;;;;;21136993;27;20395;-89
2023/11/21 23:14:49;;;;;;;;;;;6.70;99.90;;;;;;21107448;28;19970;-87
2023/11/21 23:24:50;;;;;;;;;;;6.60;99.90;;;;;;21104993;28;19919;-88
2023/11/21 23:34:50;;;;;;;;;;;6.60;99.90;;;;;;21141429;28;19919;-86
2023/11/21 23:44:53;;;;;;;;;;;6.50;99.90;;;;;;21111404;28;19939;-88
2023/11/21 23:54:54;;;;;;;;;;;6.60;99.90;;;;;;21107558;28;19916;-87
